createdAt,value
2018-06-14T00:00:09.886Z,100289.00
2018-06-14T00:02:38.089Z,100289.69
2018-06-14T00:05:06.359Z,100288.46
2018-06-14T00:07:34.514Z,100284.22
2018-06-14T00:10:03.907Z,100271.28
2018-06-14T00:12:32.040Z,100280.06
2018-06-14T00:15:00.720Z,100275.91
2018-06-14T00:17:28.951Z,100279.59
2018-06-14T00:19:57.190Z,100283.66
2018-06-14T00:22:25.496Z,100279.12
2018-06-14T00:24:53.653Z,100280.66
2018-06-14T00:27:21.844Z,100277.84
2018-06-14T00:29:49.969Z,100289.79
2018-06-14T00:32:18.134Z,100288.33
2018-06-14T00:34:46.490Z,100290.34
2018-06-14T00:37:15.754Z,100288.42
2018-06-14T00:39:44.770Z,100274.27
2018-06-14T00:42:12.944Z,100272.91
2018-06-14T00:44:41.407Z,100271.28
2018-06-14T00:47:09.565Z,100277.66
2018-06-14T00:49:37.679Z,100274.70
2018-06-14T00:52:06.373Z,100262.67
2018-06-14T00:54:34.466Z,100270.63
2018-06-14T00:57:13.878Z,100268.71
2018-06-14T00:59:42.064Z,100261.25
2018-06-14T01:02:10.333Z,100256.69
2018-06-14T01:04:38.489Z,100261.55
2018-06-14T01:07:06.904Z,100262.29
2018-06-14T01:09:35.065Z,100265.46
2018-06-14T01:12:03.178Z,100264.65
2018-06-14T01:14:31.563Z,100266.23
2018-06-14T01:16:59.795Z,100260.31
2018-06-14T01:19:27.978Z,100272.52
2018-06-14T01:21:56.035Z,100265.80
2018-06-14T01:24:24.119Z,100266.78
2018-06-14T01:26:54.114Z,100274.92
2018-06-14T01:29:22.343Z,100266.56
2018-06-14T01:31:50.660Z,100266.62
2018-06-14T01:34:18.924Z,100267.17
2018-06-14T01:36:47.163Z,100268.97
2018-06-14T01:39:15.797Z,100267.13
2018-06-14T01:41:43.983Z,100269.05
2018-06-14T01:44:13.059Z,100271.37
2018-06-14T01:46:41.263Z,100263.52
2018-06-14T01:49:09.379Z,100272.31
2018-06-14T01:51:37.700Z,100267.64
2018-06-14T01:54:05.973Z,100264.97
2018-06-14T01:56:34.320Z,100264.64
2018-06-14T01:59:02.438Z,100260.79
2018-06-14T02:01:30.706Z,100258.07
2018-06-14T02:03:59.258Z,100252.25
2018-06-14T02:06:27.564Z,100260.06
2018-06-14T02:08:55.731Z,100267.92
2018-06-14T02:11:23.859Z,100270.49
2018-06-14T02:13:52.037Z,100266.09
2018-06-14T02:16:20.315Z,100275.25
2018-06-14T02:18:48.407Z,100273.12
2018-06-14T02:21:16.672Z,100270.83
2018-06-14T02:23:45.903Z,100268.69
2018-06-14T02:26:14.043Z,100273.78
2018-06-14T02:28:42.274Z,100275.55
2018-06-14T02:31:10.553Z,100272.73
2018-06-14T02:33:38.697Z,100262.92
2018-06-14T02:36:06.796Z,100261.41
2018-06-14T02:38:34.911Z,100261.84
2018-06-14T02:41:03.286Z,100253.09
2018-06-14T02:43:31.337Z,100253.59
2018-06-14T02:45:59.482Z,100265.39
2018-06-14T02:48:27.657Z,100257.13
2018-06-14T02:50:55.815Z,100261.23
2018-06-14T02:53:23.951Z,100261.80
2018-06-14T02:55:52.072Z,100264.23
2018-06-14T02:58:21.004Z,100263.70
2018-06-14T03:00:49.118Z,100266.22
2018-06-14T03:03:17.228Z,100266.99
2018-06-14T03:05:46.087Z,100272.14
2018-06-14T03:08:15.021Z,100261.52
2018-06-14T03:10:43.859Z,100257.19
2018-06-14T03:13:11.937Z,100260.66
2018-06-14T03:15:40.161Z,100265.92
2018-06-14T03:18:08.357Z,100268.20
2018-06-14T03:20:36.603Z,100271.37
2018-06-14T03:23:04.882Z,100274.23
2018-06-14T03:25:33.154Z,100265.33
2018-06-14T03:28:01.527Z,100264.05
2018-06-14T03:30:29.631Z,100268.26
2018-06-14T03:32:57.762Z,100260.99
2018-06-14T03:35:25.914Z,100264.56
2018-06-14T03:37:54.087Z,100270.89
2018-06-14T03:40:23.048Z,100274.15
2018-06-14T03:42:51.183Z,100266.86
2018-06-14T03:45:20.966Z,100267.52
2018-06-14T03:47:50.411Z,100267.61
2018-06-14T03:50:18.721Z,100261.69
2018-06-14T03:52:46.859Z,100267.31
2018-06-14T03:55:15.512Z,100271.65
2018-06-14T03:57:44.088Z,100271.37
2018-06-14T04:00:12.551Z,100270.98
2018-06-14T04:02:40.881Z,100258.81
2018-06-14T04:05:09.017Z,100268.78
2018-06-14T04:07:37.232Z,100268.58
2018-06-14T04:10:05.629Z,100270.86
2018-06-14T04:12:33.835Z,100272.47
2018-06-14T04:15:01.960Z,100277.48
2018-06-14T04:17:30.114Z,100276.54
2018-06-14T04:19:58.360Z,100280.91
2018-06-14T04:22:26.745Z,100281.53
2018-06-14T04:24:55.113Z,100284.30
2018-06-14T04:27:23.326Z,100274.09
2018-06-14T04:29:51.471Z,100281.11
2018-06-14T04:32:19.628Z,100283.42
2018-06-14T04:34:47.827Z,100283.15
2018-06-14T04:37:16.597Z,100277.09
2018-06-14T04:39:44.907Z,100280.80
2018-06-14T04:42:13.227Z,100277.49
2018-06-14T04:44:41.347Z,100272.70
2018-06-14T04:47:09.653Z,100268.58
2018-06-14T04:49:38.204Z,100275.36
2018-06-14T04:52:06.739Z,100273.72
2018-06-14T04:54:35.076Z,100272.39
2018-06-14T04:57:03.854Z,100271.45
2018-06-14T04:59:31.988Z,100270.28
2018-06-14T05:02:00.081Z,100266.87
2018-06-14T05:04:28.282Z,100263.70
2018-06-14T05:06:56.437Z,100274.46
2018-06-14T05:09:25.096Z,100265.53
2018-06-14T05:11:53.270Z,100274.36
2018-06-14T05:14:21.464Z,100271.77
2018-06-14T05:16:49.694Z,100274.66
2018-06-14T05:19:17.866Z,100271.23
2018-06-14T05:21:46.757Z,100269.69
2018-06-14T05:24:15.297Z,100277.66
2018-06-14T05:26:43.454Z,100271.66
2018-06-14T05:29:11.745Z,100273.92
2018-06-14T05:31:40.067Z,100276.42
2018-06-14T05:34:08.208Z,100274.81
2018-06-14T05:36:36.287Z,100277.94
2018-06-14T05:39:07.428Z,100282.71
2018-06-14T05:41:35.705Z,100278.95
2018-06-14T05:44:04.317Z,100279.63
2018-06-14T05:46:33.837Z,100278.98
2018-06-14T05:49:02.065Z,100277.97
2018-06-14T05:51:30.455Z,100283.78
2018-06-14T05:53:58.571Z,100278.98
2018-06-14T05:56:27.015Z,100275.13
2018-06-14T05:58:55.275Z,100274.91
2018-06-14T06:01:24.006Z,100277.56
2018-06-14T06:03:52.367Z,100275.88
2018-06-14T06:06:20.501Z,100273.88
2018-06-14T06:08:48.641Z,100279.91
2018-06-14T06:11:16.971Z,100280.81
2018-06-14T06:13:45.652Z,100277.38
2018-06-14T06:16:13.784Z,100271.48
2018-06-14T06:18:42.100Z,100275.77
2018-06-14T06:21:10.525Z,100273.88
2018-06-14T06:23:38.866Z,100274.17
2018-06-14T06:26:07.024Z,100276.55
2018-06-14T06:28:35.079Z,100277.84
2018-06-14T06:31:03.229Z,100269.02
2018-06-14T06:33:31.486Z,100272.13
2018-06-14T06:35:59.436Z,100271.02
2018-06-14T06:38:27.567Z,100272.27
2018-06-14T06:40:55.784Z,100266.69
2018-06-14T06:43:23.942Z,100264.48
2018-06-14T06:45:52.055Z,100266.77
2018-06-14T06:48:20.496Z,100264.56
2018-06-14T06:50:48.630Z,100279.63
2018-06-14T06:53:17.094Z,100268.80
2018-06-14T06:55:45.461Z,100269.31
2018-06-14T06:58:13.569Z,100272.96
2018-06-14T07:00:41.695Z,100277.53
2018-06-14T07:03:10.171Z,100266.99
2018-06-14T07:05:38.344Z,100269.20
2018-06-14T07:08:19.086Z,100266.98
2018-06-14T07:11:15.388Z,100270.55
2018-06-14T07:13:44.700Z,100271.14
2018-06-14T07:16:12.896Z,100265.30
2018-06-14T07:18:41.032Z,100269.72
2018-06-14T07:21:09.280Z,100265.01
2018-06-14T07:23:37.532Z,100258.20
2018-06-14T07:26:05.719Z,100258.86
2018-06-14T07:28:33.936Z,100266.12
2018-06-14T07:31:02.047Z,100271.15
2018-06-14T07:33:30.272Z,100272.66
2018-06-14T07:35:58.980Z,100271.52
2018-06-14T07:38:27.152Z,100271.50
2018-06-14T07:40:55.403Z,100264.52
2018-06-14T07:43:23.628Z,100273.75
2018-06-14T07:45:51.751Z,100264.21
2018-06-14T07:48:19.848Z,100262.86
2018-06-14T07:50:48.016Z,100257.62
2018-06-14T07:53:16.262Z,100260.28
2018-06-14T07:55:44.639Z,100253.72
2018-06-14T07:58:12.853Z,100258.00
2018-06-14T08:00:41.110Z,100257.59
2018-06-14T08:03:09.713Z,100255.44
2018-06-14T08:05:37.897Z,100252.89
2018-06-14T08:08:06.065Z,100255.77
2018-06-14T08:10:34.188Z,100250.63
2018-06-14T08:13:02.407Z,100254.20
2018-06-14T08:15:30.566Z,100255.17
2018-06-14T08:17:59.265Z,100255.69
2018-06-14T08:20:27.546Z,100251.80
2018-06-14T08:22:55.804Z,100256.15
2018-06-14T08:25:23.929Z,100250.72
2018-06-14T08:27:52.119Z,100248.11
2018-06-14T08:30:20.280Z,100250.10
2018-06-14T08:32:48.376Z,100257.69
2018-06-14T08:35:18.601Z,100261.19
2018-06-14T08:37:47.483Z,100257.59
2018-06-14T08:40:15.628Z,100260.52
2018-06-14T08:42:43.772Z,100258.02
2018-06-14T08:45:11.864Z,100256.04
2018-06-14T08:47:40.222Z,100264.80
2018-06-14T08:50:08.384Z,100260.97
2018-06-14T08:52:36.497Z,100268.16
2018-06-14T08:55:04.813Z,100260.14
2018-06-14T08:57:33.157Z,100253.92
2018-06-14T09:00:01.460Z,100258.97
2018-06-14T09:02:29.619Z,100266.64
2018-06-14T09:04:57.753Z,100257.46
2018-06-14T09:07:25.831Z,100255.84
2018-06-14T09:09:53.944Z,100263.19
2018-06-14T09:12:22.010Z,100260.50
2018-06-14T09:14:50.599Z,100260.28
2018-06-14T09:17:18.639Z,100262.12
2018-06-14T09:19:47.804Z,100254.91
2018-06-14T09:22:15.880Z,100251.53
2018-06-14T09:24:45.480Z,100247.28
2018-06-14T09:27:13.561Z,100254.44
2018-06-14T09:29:42.544Z,100247.48
2018-06-14T09:32:11.138Z,100240.28
2018-06-14T09:34:39.420Z,100244.69
2018-06-14T09:37:07.564Z,100256.35
2018-06-14T09:39:35.860Z,100255.16
2018-06-14T09:42:04.295Z,100258.37
2018-06-14T09:44:33.471Z,100256.38
2018-06-14T09:47:01.734Z,100259.64
2018-06-14T09:49:29.880Z,100258.42
2018-06-14T09:51:58.036Z,100248.52
2018-06-14T09:54:26.185Z,100245.73
2018-06-14T09:56:54.261Z,100247.02
2018-06-14T09:59:22.370Z,100249.11
2018-06-14T10:01:50.575Z,100259.17
2018-06-14T10:04:18.677Z,100251.76
2018-06-14T10:06:46.863Z,100251.91
2018-06-14T10:09:15.306Z,100256.97
2018-06-14T10:11:43.695Z,100250.55
2018-06-14T10:14:11.810Z,100251.73
2018-06-14T10:16:39.919Z,100251.99
2018-06-14T10:19:08.025Z,100259.73
2018-06-14T10:21:36.325Z,100255.16
2018-06-14T10:24:04.640Z,100251.70
2018-06-14T10:26:32.809Z,100258.27
2018-06-14T10:29:00.961Z,100262.23
2018-06-14T10:31:29.256Z,100258.16
2018-06-14T10:33:57.425Z,100260.42
2018-06-14T10:36:25.677Z,100262.30
2018-06-14T10:38:53.792Z,100259.26
2018-06-14T10:41:22.089Z,100254.01
2018-06-14T10:43:50.322Z,100265.25
2018-06-14T10:46:18.464Z,100252.62
2018-06-14T10:48:47.090Z,100245.19
2018-06-14T10:51:15.187Z,100245.13
2018-06-14T10:53:43.507Z,100243.22
2018-06-14T10:56:23.146Z,100245.84
2018-06-14T10:58:56.798Z,100245.12
2018-06-14T11:01:25.357Z,100242.11
2018-06-14T11:03:53.484Z,100245.12
2018-06-14T11:06:21.687Z,100238.25
2018-06-14T11:08:49.827Z,100235.07
2018-06-14T11:11:18.361Z,100242.64
2018-06-14T11:13:47.353Z,100235.75
2018-06-14T11:16:15.526Z,100232.61
2018-06-14T11:18:43.730Z,100227.14
2018-06-14T11:21:11.840Z,100228.33
2018-06-14T11:23:40.283Z,100228.76
2018-06-14T11:26:08.370Z,100222.84
2018-06-14T11:28:38.410Z,100227.61
2018-06-14T11:31:07.092Z,100223.23
2018-06-14T11:33:35.256Z,100222.30
2018-06-14T11:36:03.650Z,100220.19
2018-06-14T11:38:31.831Z,100212.88
2018-06-14T11:41:03.318Z,100200.40
2018-06-14T11:43:31.461Z,100220.13
2018-06-14T11:45:59.612Z,100218.86
2018-06-14T11:48:28.158Z,100208.49
2018-06-14T11:50:56.376Z,100212.60
2018-06-14T11:53:24.802Z,100209.01
2018-06-14T11:55:52.949Z,100202.20
2018-06-14T11:58:21.230Z,100204.01
2018-06-14T12:00:49.521Z,100207.84
2018-06-14T12:03:18.340Z,100210.56
2018-06-14T12:05:47.594Z,100207.19
2018-06-14T12:08:15.902Z,100196.77
2018-06-14T12:10:44.153Z,100190.61
2018-06-14T12:13:12.262Z,100198.50
2018-06-14T12:15:40.590Z,100193.44
2018-06-14T12:18:08.762Z,100187.80
2018-06-14T12:20:37.396Z,100191.29
2018-06-14T12:23:06.010Z,100180.05
2018-06-14T12:25:34.243Z,100190.41
2018-06-14T12:28:02.456Z,100179.63
2018-06-14T12:30:30.676Z,100192.87
2018-06-14T12:32:58.858Z,100177.05
2018-06-14T12:35:27.109Z,100182.22
2018-06-14T12:37:55.587Z,100184.54
2018-06-14T12:40:23.778Z,100171.41
2018-06-14T12:42:52.031Z,100167.13
2018-06-14T12:45:20.312Z,100170.98
2018-06-14T12:47:49.410Z,100174.45
2018-06-14T12:50:18.608Z,100165.30
2018-06-14T12:52:47.197Z,100157.50
2018-06-14T12:55:15.363Z,100155.41
2018-06-14T12:57:43.534Z,100145.89
2018-06-14T13:00:11.719Z,100154.25
2018-06-14T13:02:45.576Z,100146.23
2018-06-14T13:05:13.658Z,100144.61
2018-06-14T13:07:41.852Z,100143.62
2018-06-14T13:10:12.311Z,100146.36
2018-06-14T13:12:40.570Z,100143.75
2018-06-14T13:15:08.879Z,100136.47
2018-06-14T13:17:37.081Z,100123.44
2018-06-14T13:20:05.213Z,100145.05
2018-06-14T13:22:33.418Z,100141.56
2018-06-14T13:25:01.536Z,100148.34
2018-06-14T13:27:29.912Z,100132.41
2018-06-14T13:29:59.390Z,100133.05
2018-06-14T13:32:28.108Z,100129.99
2018-06-14T13:34:56.312Z,100131.89
2018-06-14T13:37:24.556Z,100138.79
2018-06-14T13:39:52.652Z,100124.41
2018-06-14T13:42:20.847Z,100108.55
2018-06-14T13:44:48.979Z,100123.03
2018-06-14T13:47:18.622Z,100115.31
2018-06-14T13:49:47.752Z,100113.45
2018-06-14T13:52:17.333Z,100103.35
2018-06-14T13:54:45.456Z,100110.91
2018-06-14T13:57:14.619Z,100101.95
2018-06-14T13:59:42.843Z,100106.91
2018-06-14T14:02:11.105Z,100116.68
2018-06-14T14:04:39.192Z,100108.92
2018-06-14T14:07:07.283Z,100099.71
2018-06-14T14:09:35.548Z,100112.11
2018-06-14T14:12:03.806Z,100096.39
2018-06-14T14:14:32.197Z,100103.73
2018-06-14T14:17:01.280Z,100099.53
2018-06-14T14:19:29.468Z,100088.27
2018-06-14T14:21:57.724Z,100086.02
2018-06-14T14:24:26.190Z,100084.74
2018-06-14T14:26:54.661Z,100077.55
2018-06-14T14:29:22.824Z,100075.37
2018-06-14T14:31:51.299Z,100066.75
2018-06-14T14:34:20.139Z,100077.17
2018-06-14T14:36:49.011Z,100077.52
2018-06-14T14:39:17.388Z,100070.55
2018-06-14T14:41:45.678Z,100077.70
2018-06-14T14:44:13.814Z,100069.05
2018-06-14T14:46:41.968Z,100080.59
2018-06-14T14:49:10.235Z,100064.40
2018-06-14T14:51:38.339Z,100095.11
2018-06-14T14:54:06.540Z,100075.91
2018-06-14T14:56:35.158Z,100067.77
2018-06-14T14:59:03.289Z,100076.27
2018-06-14T15:01:31.530Z,100088.64
2018-06-14T15:03:59.637Z,100086.95
2018-06-14T15:06:28.391Z,100075.47
2018-06-14T15:08:57.230Z,100088.28
2018-06-14T15:11:25.451Z,100092.18
2018-06-14T15:13:54.023Z,100078.59
2018-06-14T15:16:22.145Z,100083.33
2018-06-14T15:18:50.399Z,100059.16
2018-06-14T15:21:19.115Z,100060.04
2018-06-14T15:23:47.484Z,100064.20
2018-06-14T15:26:16.261Z,100072.00
2018-06-14T15:28:44.532Z,100062.58
2018-06-14T15:31:12.820Z,100070.19
2018-06-14T15:33:41.818Z,100068.77
2018-06-14T15:36:09.848Z,100067.69
2018-06-14T15:38:37.965Z,100076.89
2018-06-14T15:41:06.304Z,100077.72
2018-06-14T15:43:42.988Z,100072.09
2018-06-14T15:46:22.827Z,100075.16
2018-06-14T15:48:51.149Z,100073.95
2018-06-14T15:51:19.163Z,100065.62
2018-06-14T15:53:48.012Z,100072.48
2018-06-14T15:56:32.981Z,100089.08
2018-06-14T15:59:03.691Z,100086.17
2018-06-14T16:01:33.870Z,100079.69
2018-06-14T16:04:02.726Z,100073.20
2018-06-14T16:06:32.297Z,100072.68
2018-06-14T16:09:00.457Z,100073.22
2018-06-14T16:11:29.168Z,100060.48
2018-06-14T16:13:58.265Z,100067.31
2018-06-14T16:16:27.163Z,100065.83
2018-06-14T16:18:55.812Z,100069.30
2018-06-14T16:21:23.875Z,100063.45
2018-06-14T16:23:52.588Z,100064.03
2018-06-14T16:26:20.720Z,100059.92
2018-06-14T16:28:49.569Z,100064.30
2018-06-14T16:31:19.211Z,100050.89
2018-06-14T16:33:48.217Z,100049.55
2018-06-14T16:36:16.425Z,100051.92
2018-06-14T16:38:44.775Z,100051.89
2018-06-14T16:41:12.923Z,100064.84
2018-06-14T16:43:41.423Z,100065.03
2018-06-14T16:46:09.583Z,100063.09
2018-06-14T16:48:37.739Z,100060.98
2018-06-14T16:51:06.100Z,100056.30
2018-06-14T16:53:34.376Z,100058.02
2018-06-14T16:56:02.572Z,100061.44
2018-06-14T16:58:30.721Z,100053.13
2018-06-14T17:00:58.995Z,100060.47
2018-06-14T17:03:27.131Z,100062.20
2018-06-14T17:05:55.255Z,100059.73
2018-06-14T17:08:23.380Z,100063.98
2018-06-14T17:10:51.801Z,100068.30
2018-06-14T17:13:20.135Z,100061.88
2018-06-14T17:15:48.519Z,100059.17
2018-06-14T17:18:16.639Z,100067.05
2018-06-14T17:20:44.934Z,100065.65
2018-06-14T17:23:13.072Z,100070.12
2018-06-14T17:25:42.421Z,100070.45
2018-06-14T17:28:10.785Z,100071.58
2018-06-14T17:30:39.035Z,100064.35
2018-06-14T17:33:07.352Z,100071.58
2018-06-14T17:35:35.564Z,100070.01
2018-06-14T17:38:03.716Z,100073.55
2018-06-14T17:40:32.038Z,100069.81
2018-06-14T17:43:00.215Z,100077.45
2018-06-14T17:45:28.386Z,100079.23
2018-06-14T17:47:56.517Z,100073.50
2018-06-14T17:50:24.628Z,100073.94
2018-06-14T17:52:56.834Z,100075.13
2018-06-14T17:55:25.994Z,100079.81
2018-06-14T17:57:54.296Z,100086.33
2018-06-14T18:00:22.763Z,100087.58
2018-06-14T18:02:50.862Z,100084.98
2018-06-14T18:05:19.706Z,100086.28
2018-06-14T18:07:48.137Z,100088.47
2018-06-14T18:10:18.394Z,100089.34
2018-06-14T18:12:46.936Z,100088.44
2018-06-14T18:15:15.557Z,100084.14
2018-06-14T18:17:44.520Z,100084.13
2018-06-14T18:20:12.641Z,100085.88
2018-06-14T18:22:40.928Z,100091.91
2018-06-14T18:25:09.293Z,100097.11
2018-06-14T18:27:37.654Z,100095.38
2018-06-14T18:30:05.924Z,100100.58
2018-06-14T18:32:34.461Z,100101.44
2018-06-14T18:35:02.552Z,100103.58
2018-06-14T18:37:30.733Z,100107.05
2018-06-14T18:39:58.832Z,100107.05
2018-06-14T18:42:26.956Z,100122.59
2018-06-14T18:44:55.094Z,100111.37
2018-06-14T18:47:23.451Z,100113.51
2018-06-14T18:49:51.746Z,100119.14
2018-06-14T18:52:20.002Z,100119.99
2018-06-14T18:54:48.554Z,100119.56
2018-06-14T18:57:16.760Z,100126.05
2018-06-14T18:59:48.440Z,100122.16
2018-06-14T19:02:16.922Z,100129.06
2018-06-14T19:04:45.045Z,100123.45
2018-06-14T19:07:13.416Z,100128.20
2018-06-14T19:09:41.637Z,100130.25
2018-06-14T19:12:10.060Z,100128.59
2018-06-14T19:14:38.369Z,100127.73
2018-06-14T19:17:06.705Z,100133.30
2018-06-14T19:19:34.847Z,100137.64
2018-06-14T19:22:03.151Z,100136.42
2018-06-14T19:24:31.668Z,100145.01
2018-06-14T19:26:59.915Z,100150.23
2018-06-14T19:29:31.650Z,100152.74
2018-06-14T19:32:00.122Z,100147.08
2018-06-14T19:34:31.038Z,100154.85
2018-06-14T19:36:59.231Z,100160.90
2018-06-14T19:39:27.406Z,100159.61
2018-06-14T19:41:55.655Z,100156.96
2018-06-14T19:44:23.945Z,100163.84
2018-06-14T19:46:52.535Z,100165.16
2018-06-14T19:49:24.806Z,100168.53
2018-06-14T19:51:53.755Z,100169.03
2018-06-14T19:54:22.076Z,100169.37
2018-06-14T19:56:51.232Z,100170.75
2018-06-14T19:59:20.059Z,100181.09
2018-06-14T20:01:48.195Z,100181.58
2018-06-14T20:04:17.539Z,100176.73
2018-06-14T20:06:46.229Z,100179.27
2018-06-14T20:09:15.226Z,100180.91
2018-06-14T20:11:43.702Z,100180.67
2018-06-14T20:14:11.911Z,100180.49
2018-06-14T20:16:40.202Z,100176.59
2018-06-14T20:19:09.238Z,100177.97
2018-06-14T20:21:37.520Z,100183.55
2018-06-14T20:24:06.975Z,100185.66
2018-06-14T20:26:37.740Z,100186.86
2018-06-14T20:29:06.552Z,100187.33
2018-06-14T20:31:35.357Z,100188.59
2018-06-14T20:34:03.600Z,100188.53
2018-06-14T20:36:31.745Z,100190.56
2018-06-14T20:39:00.159Z,100193.09
2018-06-14T20:41:28.492Z,100196.61
2018-06-14T20:43:56.875Z,100202.25
2018-06-14T20:46:25.078Z,100199.80
2018-06-14T20:48:53.528Z,100202.34
2018-06-14T20:51:22.215Z,100206.95
2018-06-14T20:53:51.849Z,100207.37
2018-06-14T20:56:20.627Z,100210.41
2018-06-14T20:58:49.416Z,100217.16
2018-06-14T21:01:19.847Z,100213.28
2018-06-14T21:03:48.147Z,100215.36
2018-06-14T21:06:16.370Z,100214.38
2018-06-14T21:08:44.471Z,100215.98
2018-06-14T21:11:12.555Z,100222.63
2018-06-14T21:13:40.686Z,100227.52
2018-06-14T21:16:08.943Z,100226.48
2018-06-14T21:18:37.056Z,100222.47
2018-06-14T21:21:05.131Z,100227.93
2018-06-14T21:23:33.282Z,100234.00
2018-06-14T21:26:01.419Z,100236.20
2018-06-14T21:28:29.793Z,100236.86
2018-06-14T21:30:57.883Z,100240.58
2018-06-14T21:33:25.975Z,100241.45
2018-06-14T21:35:54.079Z,100240.84
2018-06-14T21:38:22.295Z,100246.86
2018-06-14T21:40:50.570Z,100252.02
2018-06-14T21:43:18.988Z,100251.20
2018-06-14T21:45:47.165Z,100260.58
2018-06-14T21:48:15.359Z,100262.06
2018-06-14T21:50:43.718Z,100268.07
2018-06-14T21:53:11.871Z,100268.00
2018-06-14T21:55:40.141Z,100273.19
2018-06-14T21:58:08.320Z,100279.98
2018-06-14T22:00:36.449Z,100267.59
2018-06-14T22:04:12.178Z,100272.78
2018-06-14T22:06:40.278Z,100270.14
2018-06-14T22:09:08.727Z,100274.83
2018-06-14T22:11:36.861Z,100275.03
2018-06-14T22:14:05.540Z,100271.30
2018-06-14T22:16:33.855Z,100265.70
2018-06-14T22:19:02.126Z,100268.53
2018-06-14T22:21:31.421Z,100270.64
2018-06-14T22:23:59.609Z,100273.12
2018-06-14T22:26:28.059Z,100271.91
2018-06-14T22:28:56.263Z,100276.41
2018-06-14T22:31:24.343Z,100280.92
2018-06-14T22:34:04.056Z,100288.50
2018-06-14T22:36:32.251Z,100286.02
2018-06-14T22:39:00.392Z,100286.02
2018-06-14T22:41:28.684Z,100283.80
2018-06-14T22:43:57.835Z,100287.39
2018-06-14T22:46:25.973Z,100281.11
2018-06-14T22:48:54.225Z,100287.14
2018-06-14T22:51:22.739Z,100285.48
2018-06-14T22:53:50.891Z,100282.58
2018-06-14T22:56:18.974Z,100276.91
2018-06-14T22:58:47.140Z,100286.02
2018-06-14T23:01:35.813Z,100285.22
2018-06-14T23:04:04.705Z,100284.08
2018-06-14T23:06:33.052Z,100280.73
2018-06-14T23:09:05.449Z,100279.14
2018-06-14T23:11:33.687Z,100276.59
2018-06-14T23:14:01.893Z,100279.44
2018-06-14T23:16:29.985Z,100283.38
2018-06-14T23:18:58.416Z,100278.00
2018-06-14T23:21:26.531Z,100281.45
2018-06-14T23:23:54.641Z,100277.16
2018-06-14T23:26:23.147Z,100276.71
2018-06-14T23:28:51.305Z,100278.48
2018-06-14T23:31:19.451Z,100279.89
2018-06-14T23:33:47.639Z,100273.13
2018-06-14T23:36:15.776Z,100285.64
2018-06-14T23:38:44.026Z,100279.70
2018-06-14T23:41:12.811Z,100280.23
2018-06-14T23:43:42.179Z,100279.88
2018-06-14T23:46:10.417Z,100281.80
2018-06-14T23:48:38.490Z,100275.73
2018-06-14T23:51:06.559Z,100276.91
2018-06-14T23:53:34.725Z,100278.61
2018-06-14T23:56:03.161Z,100285.03
2018-06-14T23:58:31.343Z,100282.43
